createdAt,value
2023-02-15T00:00:11.635Z,3.70
2023-02-15T00:02:59.167Z,3.70
2023-02-15T00:05:26.311Z,3.60
2023-02-15T00:07:53.777Z,3.60
2023-02-15T00:10:20.961Z,3.60
2023-02-15T00:12:48.517Z,3.60
2023-02-15T00:15:15.694Z,3.60
2023-02-15T00:17:43.172Z,3.60
2023-02-15T00:20:10.742Z,3.50
2023-02-15T00:22:38.223Z,3.60
2023-02-15T00:25:05.795Z,3.50
2023-02-15T00:27:35.146Z,3.60
2023-02-15T00:30:03.793Z,3.50
2023-02-15T00:32:31.335Z,3.50
2023-02-15T00:34:58.598Z,3.50
2023-02-15T00:37:26.106Z,3.50
2023-02-15T00:39:53.245Z,3.50
2023-02-15T00:42:20.721Z,3.50
2023-02-15T00:44:47.833Z,3.50
2023-02-15T00:47:15.350Z,3.40
2023-02-15T00:49:42.457Z,3.40
2023-02-15T00:52:10.299Z,3.40
2023-02-15T00:54:39.737Z,3.40
2023-02-15T00:57:07.399Z,3.40
2023-02-15T00:59:35.785Z,3.40
2023-02-15T01:02:03.325Z,3.40
2023-02-15T01:04:30.600Z,3.40
2023-02-15T01:06:58.363Z,3.40
2023-02-15T01:09:25.729Z,3.40
2023-02-15T01:11:53.369Z,3.40
2023-02-15T01:14:20.581Z,3.40
2023-02-15T01:16:48.047Z,3.40
2023-02-15T01:19:15.870Z,3.40
2023-02-15T01:21:43.309Z,3.40
2023-02-15T01:24:17.785Z,3.30
2023-02-15T01:26:45.205Z,3.30
2023-02-15T01:29:12.553Z,3.30
2023-02-15T01:31:40.277Z,3.20
2023-02-15T01:34:07.745Z,3.20
2023-02-15T01:36:36.276Z,3.20
2023-02-15T01:39:03.770Z,3.20
2023-02-15T01:41:32.428Z,3.20
2023-02-15T01:44:02.835Z,3.20
2023-02-15T01:46:41.664Z,3.30
2023-02-15T01:49:16.179Z,3.30
2023-02-15T01:51:46.950Z,3.30
2023-02-15T01:54:14.040Z,3.30
2023-02-15T01:56:42.865Z,3.30
2023-02-15T01:59:15.949Z,3.20
2023-02-15T02:01:44.414Z,3.20
2023-02-15T02:04:24.188Z,3.20
2023-02-15T02:06:52.449Z,3.20
2023-02-15T02:09:19.595Z,3.20
2023-02-15T02:11:49.183Z,3.20
2023-02-15T02:14:17.674Z,3.10
2023-02-15T02:17:08.049Z,3.20
2023-02-15T02:20:17.817Z,3.20
2023-02-15T02:23:06.223Z,3.10
2023-02-15T02:26:04.541Z,3.00
2023-02-15T02:29:05.908Z,3.00
2023-02-15T02:31:38.949Z,3.00
2023-02-15T02:34:23.806Z,2.90
2023-02-15T02:37:13.620Z,2.90
2023-02-15T02:39:50.614Z,3.00
2023-02-15T02:42:30.796Z,2.90
2023-02-15T02:45:09.152Z,2.90
2023-02-15T02:47:55.117Z,2.90
2023-02-15T02:50:29.184Z,2.90
2023-02-15T02:52:58.314Z,2.90
2023-02-15T02:55:52.490Z,2.90
2023-02-15T02:58:39.394Z,2.80
2023-02-15T03:01:21.702Z,2.80
2023-02-15T03:04:04.731Z,2.80
2023-02-15T03:06:52.294Z,2.80
2023-02-15T03:09:23.977Z,2.80
2023-02-15T03:11:51.784Z,2.80
2023-02-15T03:14:21.250Z,2.80
2023-02-15T03:16:51.377Z,2.70
2023-02-15T03:19:33.498Z,2.70
2023-02-15T03:22:14.761Z,2.70
2023-02-15T03:24:52.441Z,2.70
2023-02-15T03:27:26.653Z,2.60
2023-02-15T03:29:58.555Z,2.60
2023-02-15T03:32:29.438Z,2.60
2023-02-15T03:34:56.883Z,2.60
2023-02-15T03:37:45.833Z,2.60
2023-02-15T03:40:57.316Z,2.50
2023-02-15T03:44:01.885Z,2.50
2023-02-15T03:46:43.603Z,2.60
2023-02-15T03:49:41.105Z,2.60
2023-02-15T03:52:11.498Z,2.60
2023-02-15T03:54:43.359Z,2.60
2023-02-15T03:57:39.491Z,2.50
2023-02-15T04:00:33.821Z,2.50
2023-02-15T04:03:24.003Z,2.50
2023-02-15T04:05:51.779Z,2.50
2023-02-15T04:08:19.034Z,2.50
2023-02-15T04:10:57.267Z,2.50
2023-02-15T04:13:32.806Z,2.50
2023-02-15T04:16:07.572Z,2.40
2023-02-15T04:19:01.789Z,2.40
2023-02-15T04:21:50.025Z,2.40
2023-02-15T04:24:36.508Z,2.30
2023-02-15T04:27:05.427Z,2.30
2023-02-15T04:29:33.270Z,2.30
2023-02-15T04:32:02.276Z,2.30
2023-02-15T04:34:29.462Z,2.30
2023-02-15T04:36:57.062Z,2.30
2023-02-15T04:39:24.311Z,2.30
2023-02-15T04:41:52.034Z,2.20
2023-02-15T04:44:19.244Z,2.20
2023-02-15T04:46:46.823Z,2.20
2023-02-15T04:49:13.995Z,2.20
2023-02-15T04:51:41.784Z,2.20
2023-02-15T04:54:09.022Z,2.30
2023-02-15T04:56:38.908Z,2.20
2023-02-15T04:59:06.414Z,2.20
2023-02-15T05:01:33.830Z,2.20
2023-02-15T05:04:01.132Z,2.20
2023-02-15T05:06:28.581Z,2.10
2023-02-15T05:08:55.893Z,2.10
2023-02-15T05:11:23.419Z,2.10
2023-02-15T05:13:50.514Z,2.10
2023-02-15T05:16:18.849Z,2.10
2023-02-15T05:18:46.099Z,2.10
2023-02-15T05:21:14.678Z,2.20
2023-02-15T05:23:41.833Z,2.20
2023-02-15T05:26:31.915Z,2.20
2023-02-15T05:28:59.006Z,2.20
2023-02-15T05:31:26.949Z,2.20
2023-02-15T05:33:54.237Z,2.10
2023-02-15T05:36:21.638Z,2.10
2023-02-15T05:38:49.178Z,2.10
2023-02-15T05:41:16.604Z,2.10
2023-02-15T05:43:43.971Z,2.10
2023-02-15T05:46:12.802Z,2.00
2023-02-15T05:48:40.003Z,2.00
2023-02-15T05:51:10.506Z,2.00
2023-02-15T05:53:39.405Z,2.00
2023-02-15T05:56:10.651Z,2.00
2023-02-15T05:58:40.887Z,2.00
2023-02-15T06:01:16.454Z,2.00
2023-02-15T06:03:44.132Z,2.00
2023-02-15T06:06:12.029Z,2.00
2023-02-15T06:08:39.649Z,2.00
2023-02-15T06:11:07.868Z,2.00
2023-02-15T06:13:38.364Z,2.00
2023-02-15T06:16:07.081Z,1.90
2023-02-15T06:18:35.018Z,1.90
2023-02-15T06:21:03.344Z,1.90
2023-02-15T06:23:30.476Z,1.90
2023-02-15T06:25:58.019Z,1.90
2023-02-15T06:28:26.526Z,1.90
2023-02-15T06:30:54.128Z,1.90
2023-02-15T06:33:22.585Z,1.90
2023-02-15T06:35:50.057Z,1.90
2023-02-15T06:38:18.652Z,1.80
2023-02-15T06:40:46.023Z,1.80
2023-02-15T06:43:13.230Z,1.80
2023-02-15T06:45:42.050Z,1.80
2023-02-15T06:48:09.420Z,1.80
2023-02-15T06:50:36.845Z,1.70
2023-02-15T06:53:04.208Z,1.70
2023-02-15T06:55:31.674Z,1.70
2023-02-15T06:57:58.869Z,1.70
2023-02-15T07:00:26.524Z,1.80
2023-02-15T07:02:58.808Z,1.80
2023-02-15T07:05:31.921Z,1.90
2023-02-15T07:08:00.301Z,1.90
2023-02-15T07:10:29.882Z,1.90
2023-02-15T07:12:57.281Z,1.90
2023-02-15T07:15:25.455Z,1.90
2023-02-15T07:17:52.675Z,2.00
2023-02-15T07:20:22.840Z,2.00
2023-02-15T07:22:50.379Z,2.00
2023-02-15T07:25:18.366Z,1.90
2023-02-15T07:27:46.300Z,2.10
2023-02-15T07:30:16.569Z,2.10
2023-02-15T07:33:05.109Z,2.10
2023-02-15T07:35:33.957Z,2.10
2023-02-15T07:38:02.254Z,2.10
2023-02-15T07:40:29.708Z,2.10
2023-02-15T07:43:00.137Z,2.10
2023-02-15T07:45:28.174Z,2.20
2023-02-15T07:47:55.603Z,2.20
2023-02-15T07:50:23.349Z,2.20
2023-02-15T07:52:50.498Z,2.20
2023-02-15T07:55:17.948Z,2.20
2023-02-15T07:57:46.985Z,2.30
2023-02-15T08:00:16.426Z,2.30
2023-02-15T08:02:49.154Z,2.30
2023-02-15T08:05:18.034Z,2.20
2023-02-15T08:07:45.197Z,2.30
2023-02-15T08:10:32.575Z,2.20
2023-02-15T08:12:59.778Z,2.20
2023-02-15T08:15:27.225Z,2.10
2023-02-15T08:17:54.425Z,2.00
2023-02-15T08:20:21.862Z,2.10
2023-02-15T08:22:49.020Z,2.00
2023-02-15T08:25:16.491Z,2.00
2023-02-15T08:27:43.703Z,1.90
2023-02-15T08:30:11.862Z,2.00
2023-02-15T08:32:39.073Z,2.10
2023-02-15T08:35:06.877Z,2.10
2023-02-15T08:37:34.013Z,2.20
2023-02-15T08:40:01.475Z,2.10
2023-02-15T08:42:28.596Z,2.20
2023-02-15T08:44:56.058Z,2.20
2023-02-15T08:47:23.209Z,2.20
2023-02-15T08:49:52.160Z,2.30
2023-02-15T08:52:19.370Z,2.40
2023-02-15T08:54:46.835Z,2.30
2023-02-15T08:57:13.988Z,2.50
2023-02-15T08:59:41.419Z,2.40
2023-02-15T09:02:11.487Z,2.40
2023-02-15T09:04:38.974Z,2.40
2023-02-15T09:07:06.199Z,2.40
2023-02-15T09:09:33.690Z,2.50
2023-02-15T09:12:00.861Z,2.40
2023-02-15T09:14:28.789Z,2.50
2023-02-15T09:16:56.377Z,2.60
2023-02-15T09:19:25.125Z,2.60
2023-02-15T09:21:52.720Z,2.60
2023-02-15T09:24:20.272Z,2.70
2023-02-15T09:26:49.441Z,2.70
2023-02-15T09:29:18.850Z,2.70
2023-02-15T09:31:51.083Z,2.70
2023-02-15T09:34:21.516Z,2.80
2023-02-15T09:36:49.613Z,2.80
2023-02-15T09:39:24.738Z,2.80
2023-02-15T09:42:27.344Z,2.80
2023-02-15T09:45:06.624Z,2.90
2023-02-15T09:47:58.289Z,2.90
2023-02-15T09:51:01.717Z,2.90
2023-02-15T09:53:40.121Z,3.00
2023-02-15T09:56:10.134Z,3.00
2023-02-15T09:58:51.937Z,4.70
2023-02-15T10:01:35.928Z,3.10
2023-02-15T10:04:14.167Z,3.10
2023-02-15T10:07:02.992Z,3.10
2023-02-15T10:09:56.840Z,3.10
2023-02-15T10:12:50.899Z,3.10
2023-02-15T10:15:40.666Z,3.10
2023-02-15T10:18:08.112Z,3.20
2023-02-15T10:21:03.969Z,3.10
2023-02-15T10:23:31.552Z,3.20
2023-02-15T10:26:17.342Z,3.20
2023-02-15T10:29:17.727Z,3.20
2023-02-15T10:31:50.878Z,3.20
2023-02-15T10:34:39.150Z,3.30
2023-02-15T10:37:12.110Z,3.30
2023-02-15T10:39:51.292Z,3.30
2023-02-15T10:42:55.309Z,3.30
2023-02-15T10:45:37.222Z,3.40
2023-02-15T10:48:16.552Z,3.40
2023-02-15T10:50:51.540Z,3.40
2023-02-15T10:53:21.450Z,3.40
2023-02-15T10:56:04.596Z,3.40
2023-02-15T10:58:44.756Z,3.40
2023-02-15T11:01:27.478Z,3.40
2023-02-15T11:04:17.447Z,3.40
2023-02-15T11:06:53.162Z,3.40
2023-02-15T11:09:23.691Z,3.40
2023-02-15T11:11:54.351Z,3.40
2023-02-15T11:15:01.451Z,3.50
2023-02-15T11:17:39.184Z,3.50
2023-02-15T11:20:19.922Z,3.50
2023-02-15T11:22:54.359Z,3.50
2023-02-15T11:25:35.410Z,3.50
2023-02-15T11:28:11.151Z,3.60
2023-02-15T11:30:48.832Z,3.70
2023-02-15T11:33:23.301Z,3.70
2023-02-15T11:36:04.817Z,3.60
2023-02-15T11:38:37.546Z,3.70
2023-02-15T11:41:10.737Z,3.70
2023-02-15T11:43:51.096Z,3.70
2023-02-15T11:46:19.963Z,3.70
2023-02-15T11:48:47.494Z,3.60
2023-02-15T11:51:22.718Z,3.60
2023-02-15T11:53:51.884Z,3.60
2023-02-15T11:56:27.195Z,3.60
2023-02-15T11:59:01.636Z,3.50
2023-02-15T12:01:54.864Z,3.50
2023-02-15T12:04:41.246Z,3.50
2023-02-15T12:07:22.854Z,3.60
2023-02-15T12:10:19.209Z,3.60
2023-02-15T12:12:46.543Z,3.60
2023-02-15T12:15:15.144Z,3.60
2023-02-15T12:18:00.270Z,3.60
2023-02-15T12:20:36.864Z,3.70
2023-02-15T12:23:12.736Z,3.60
2023-02-15T12:25:55.460Z,3.60
2023-02-15T12:28:35.431Z,3.60
2023-02-15T12:31:09.128Z,3.70
2023-02-15T12:33:42.954Z,3.70
2023-02-15T12:36:28.993Z,3.70
2023-02-15T12:39:18.288Z,3.80
2023-02-15T12:41:57.821Z,3.80
2023-02-15T12:44:29.818Z,3.80
2023-02-15T12:47:01.467Z,3.80
2023-02-15T12:49:30.457Z,3.80
2023-02-15T12:52:00.549Z,3.90
2023-02-15T12:54:41.487Z,3.90
2023-02-15T12:57:26.770Z,3.90
2023-02-15T12:59:56.939Z,3.80
2023-02-15T13:02:53.704Z,3.90
2023-02-15T13:05:44.157Z,3.90
2023-02-15T13:08:28.208Z,3.90
2023-02-15T13:11:05.203Z,3.90
2023-02-15T13:13:35.586Z,3.90
2023-02-15T13:16:13.591Z,3.90
2023-02-15T13:18:45.102Z,3.80
2023-02-15T13:21:22.173Z,3.80
2023-02-15T13:23:54.599Z,3.80
2023-02-15T13:26:24.602Z,3.80
2023-02-15T13:28:56.560Z,3.80
2023-02-15T13:31:34.193Z,3.80
2023-02-15T13:34:11.100Z,3.80
2023-02-15T13:37:04.925Z,3.80
2023-02-15T13:39:55.893Z,3.80
2023-02-15T13:42:39.537Z,3.70
2023-02-15T13:45:34.987Z,3.70
2023-02-15T13:48:17.556Z,3.70
2023-02-15T13:51:03.924Z,3.70
2023-02-15T13:53:43.270Z,3.60
2023-02-15T13:56:32.253Z,3.60
2023-02-15T13:59:18.903Z,3.70
2023-02-15T14:01:46.312Z,3.60
2023-02-15T14:04:32.022Z,3.60
2023-02-15T14:07:22.864Z,3.60
2023-02-15T14:10:03.752Z,3.60
2023-02-15T14:12:36.627Z,3.60
2023-02-15T14:15:33.395Z,3.60
2023-02-15T14:18:14.719Z,3.60
2023-02-15T14:21:11.299Z,3.60
2023-02-15T14:23:57.203Z,3.60
2023-02-15T14:26:27.174Z,3.60
2023-02-15T14:29:07.532Z,3.70
2023-02-15T14:31:42.807Z,3.60
2023-02-15T14:34:28.829Z,3.60
2023-02-15T14:36:57.089Z,3.60
2023-02-15T14:39:51.377Z,3.60
2023-02-15T14:42:24.575Z,3.60
2023-02-15T14:45:21.518Z,3.60
2023-02-15T14:48:24.985Z,3.60
2023-02-15T14:50:52.631Z,3.60
2023-02-15T14:53:39.515Z,3.60
2023-02-15T14:56:08.478Z,3.60
2023-02-15T14:58:36.158Z,3.60
2023-02-15T15:01:13.654Z,3.50
2023-02-15T15:03:54.091Z,3.50
2023-02-15T15:06:28.770Z,3.50
2023-02-15T15:09:13.211Z,3.50
2023-02-15T15:11:44.930Z,3.50
2023-02-15T15:14:35.181Z,3.50
2023-02-15T15:17:04.866Z,3.50
2023-02-15T15:19:59.575Z,3.50
2023-02-15T15:22:29.609Z,3.50
2023-02-15T15:25:02.156Z,3.50
2023-02-15T15:27:55.691Z,3.50
2023-02-15T15:30:23.266Z,3.40
2023-02-15T15:32:59.604Z,3.40
2023-02-15T15:35:53.750Z,3.40
2023-02-15T15:38:58.439Z,3.40
2023-02-15T15:42:05.311Z,3.40
2023-02-15T15:45:00.599Z,3.30
2023-02-15T15:47:56.143Z,3.30
2023-02-15T15:50:33.179Z,3.30
2023-02-15T15:53:02.568Z,3.40
2023-02-15T15:55:32.997Z,3.30
2023-02-15T15:58:06.960Z,3.30
2023-02-15T16:00:45.771Z,3.30
2023-02-15T16:03:23.791Z,3.40
2023-02-15T16:05:56.213Z,3.30
2023-02-15T16:08:49.390Z,3.30
2023-02-15T16:11:26.397Z,3.30
2023-02-15T16:13:54.550Z,3.30
2023-02-15T16:16:25.993Z,3.30
2023-02-15T16:18:53.549Z,3.30
2023-02-15T16:21:24.543Z,3.30
2023-02-15T16:24:06.666Z,3.40
2023-02-15T16:26:45.969Z,3.40
2023-02-15T16:29:18.815Z,3.30
2023-02-15T16:32:29.136Z,3.40
2023-02-15T16:35:02.114Z,3.30
2023-02-15T16:37:38.771Z,3.40
2023-02-15T16:40:06.828Z,3.40
2023-02-15T16:42:36.017Z,3.40
2023-02-15T16:45:15.653Z,3.40
2023-02-15T16:47:48.094Z,3.40
2023-02-15T16:50:38.931Z,3.40
2023-02-15T16:53:15.490Z,3.40
2023-02-15T16:55:44.043Z,3.50
2023-02-15T16:58:17.641Z,3.40
2023-02-15T17:00:45.801Z,3.40
2023-02-15T17:03:13.268Z,3.40
2023-02-15T17:05:56.063Z,3.50
2023-02-15T17:08:34.260Z,3.50
2023-02-15T17:11:22.997Z,3.50
2023-02-15T17:14:06.518Z,3.50
2023-02-15T17:16:50.580Z,3.50
2023-02-15T17:19:20.873Z,3.50
2023-02-15T17:22:10.133Z,3.50
2023-02-15T17:24:44.022Z,3.50
2023-02-15T17:27:19.263Z,3.40
2023-02-15T17:29:58.118Z,3.40
2023-02-15T17:32:28.451Z,3.40
2023-02-15T17:35:29.489Z,3.30
2023-02-15T17:38:21.520Z,3.30
2023-02-15T17:40:49.051Z,3.30
2023-02-15T17:43:16.113Z,3.20
2023-02-15T17:45:51.400Z,3.20
2023-02-15T17:48:33.466Z,3.20
2023-02-15T17:51:06.361Z,3.20
2023-02-15T17:53:34.405Z,3.20
2023-02-15T17:56:10.446Z,3.20
2023-02-15T17:58:39.424Z,3.20
2023-02-15T18:01:36.970Z,3.20
2023-02-15T18:04:23.986Z,3.20
2023-02-15T18:07:10.061Z,3.20
2023-02-15T18:09:55.835Z,3.20
2023-02-15T18:12:38.652Z,3.20
2023-02-15T18:15:07.323Z,3.10
2023-02-15T18:17:38.326Z,3.10
2023-02-15T18:20:24.340Z,3.10
2023-02-15T18:22:52.489Z,3.10
2023-02-15T18:25:23.636Z,3.10
2023-02-15T18:27:53.359Z,3.10
2023-02-15T18:30:24.017Z,3.00
2023-02-15T18:32:54.014Z,3.00
2023-02-15T18:35:24.612Z,3.00
2023-02-15T18:37:53.625Z,3.00
2023-02-15T18:40:24.179Z,3.00
2023-02-15T18:42:51.810Z,3.00
2023-02-15T18:45:24.886Z,3.00
2023-02-15T18:47:52.291Z,3.00
2023-02-15T18:50:21.766Z,2.90
2023-02-15T18:52:53.169Z,3.00
2023-02-15T18:55:23.631Z,3.00
2023-02-15T18:57:53.336Z,3.00
2023-02-15T19:00:25.883Z,2.90
2023-02-15T19:02:54.528Z,2.90
2023-02-15T19:05:22.635Z,2.90
2023-02-15T19:07:51.464Z,2.90
2023-02-15T19:10:24.653Z,2.90
2023-02-15T19:12:53.058Z,2.90
2023-02-15T19:15:30.586Z,2.90
2023-02-15T19:17:58.315Z,2.90
2023-02-15T19:20:44.104Z,2.90
2023-02-15T19:23:20.887Z,2.90
2023-02-15T19:25:49.815Z,2.90
2023-02-15T19:28:21.379Z,2.90
2023-02-15T19:30:48.642Z,2.90
2023-02-15T19:33:20.812Z,2.80
2023-02-15T19:35:54.087Z,2.90
2023-02-15T19:38:29.208Z,2.80
2023-02-15T19:41:01.994Z,2.80
2023-02-15T19:43:30.241Z,2.80
2023-02-15T19:45:57.467Z,2.80
2023-02-15T19:48:24.997Z,2.80
2023-02-15T19:50:56.960Z,2.80
2023-02-15T19:53:29.076Z,2.80
2023-02-15T19:55:56.371Z,2.80
2023-02-15T19:58:24.326Z,2.80
2023-02-15T20:00:52.384Z,2.80
2023-02-15T20:03:20.148Z,2.80
2023-02-15T20:05:47.816Z,2.80
2023-02-15T20:08:19.432Z,2.80
2023-02-15T20:10:46.700Z,2.80
2023-02-15T20:13:16.360Z,2.80
2023-02-15T20:15:44.510Z,2.80
2023-02-15T20:18:12.619Z,2.80
2023-02-15T20:20:41.653Z,2.80
2023-02-15T20:23:31.426Z,2.80
2023-02-15T20:26:01.096Z,2.90
2023-02-15T20:28:31.301Z,2.80
2023-02-15T20:30:58.896Z,2.80
2023-02-15T20:33:26.103Z,2.90
2023-02-15T20:35:53.680Z,2.80
2023-02-15T20:38:24.823Z,2.80
2023-02-15T20:41:12.479Z,2.80
2023-02-15T20:43:39.706Z,2.80
2023-02-15T20:46:07.766Z,2.80
2023-02-15T20:48:35.513Z,2.80
2023-02-15T20:51:03.877Z,2.80
2023-02-15T20:53:31.307Z,2.90
2023-02-15T20:55:58.795Z,2.90
2023-02-15T20:58:28.861Z,2.80
2023-02-15T21:00:58.973Z,2.90
2023-02-15T21:03:31.035Z,2.80
2023-02-15T21:05:59.453Z,2.90
2023-02-15T21:08:27.382Z,2.90
2023-02-15T21:10:55.153Z,2.80
2023-02-15T21:13:29.643Z,2.90
2023-02-15T21:15:58.197Z,2.90
2023-02-15T21:18:27.960Z,2.80
2023-02-15T21:20:58.369Z,2.90
2023-02-15T21:23:41.328Z,2.80
2023-02-15T21:26:21.339Z,2.80
2023-02-15T21:28:50.141Z,2.80
2023-02-15T21:31:25.797Z,2.80
2023-02-15T21:33:53.479Z,2.80
2023-02-15T21:36:24.298Z,2.80
2023-02-15T21:38:53.811Z,2.80
2023-02-15T21:41:41.795Z,2.70
2023-02-15T21:44:39.848Z,2.80
2023-02-15T21:47:46.162Z,2.80
2023-02-15T21:50:43.716Z,2.80
2023-02-15T21:53:18.249Z,2.80
2023-02-15T21:55:45.365Z,2.80
2023-02-15T21:58:20.306Z,2.80
2023-02-15T22:00:48.337Z,2.80
2023-02-15T22:03:16.064Z,2.80
2023-02-15T22:05:43.216Z,2.80
2023-02-15T22:08:13.315Z,2.90
2023-02-15T22:10:41.385Z,2.80
2023-02-15T22:13:13.765Z,2.80
2023-02-15T22:15:41.913Z,2.80
2023-02-15T22:18:20.675Z,2.90
2023-02-15T22:20:48.880Z,2.80
2023-02-15T22:23:16.392Z,2.80
2023-02-15T22:25:54.618Z,2.80
2023-02-15T22:28:31.685Z,2.80
2023-02-15T22:30:58.988Z,2.80
2023-02-15T22:33:30.082Z,2.80
2023-02-15T22:35:57.361Z,2.80
2023-02-15T22:38:25.084Z,2.80
2023-02-15T22:40:55.328Z,2.80
2023-02-15T22:43:40.667Z,2.80
2023-02-15T22:46:17.302Z,2.80
2023-02-15T22:48:45.410Z,2.80
2023-02-15T22:51:17.858Z,2.80
2023-02-15T22:53:45.590Z,2.80
2023-02-15T22:56:37.976Z,2.70
2023-02-15T22:59:10.694Z,2.80
2023-02-15T23:01:38.612Z,2.80
2023-02-15T23:04:06.227Z,2.80
2023-02-15T23:06:34.603Z,2.80
2023-02-15T23:09:02.208Z,2.80
2023-02-15T23:11:29.383Z,2.80
2023-02-15T23:13:57.532Z,2.90
2023-02-15T23:16:24.772Z,2.80
2023-02-15T23:18:52.289Z,2.80
2023-02-15T23:21:25.838Z,2.80
2023-02-15T23:23:57.490Z,2.80
2023-02-15T23:26:31.770Z,2.80
2023-02-15T23:29:00.873Z,2.90
2023-02-15T23:31:34.212Z,2.90
2023-02-15T23:34:07.339Z,2.80
2023-02-15T23:36:37.372Z,2.80
2023-02-15T23:39:44.700Z,2.80
2023-02-15T23:42:18.867Z,2.80
2023-02-15T23:44:48.029Z,2.80
2023-02-15T23:47:53.525Z,2.80
2023-02-15T23:50:24.451Z,2.80
2023-02-15T23:52:52.946Z,2.80
2023-02-15T23:55:21.517Z,2.70
2023-02-15T23:57:49.678Z,2.80
